Time;durP1;ratioP1;P1;durP2;ratioP2;P2;SDS_P1;SDS_P2;PMS_P1;PMS_P2;Temp;Humidity;BMP_temperature;BMP_pressure;BME280_temperature;BME280_humidity;BME280_pressure;Samples;Min_cycle;Max_cycle;Signal;HPM_P1;HPM_P2
2022/03/13 00:00:27;;;;;;;25.00;22.30;;;7.40;39.30;;;;;;5138315;27;20432;-45
2022/03/13 00:02:55;;;;;;;27.30;22.37;;;7.30;39.30;;;;;;5138367;27;20464;-45
2022/03/13 00:05:21;;;;;;;24.60;20.57;;;7.30;39.40;;;;;;5117609;27;20444;-45
2022/03/13 00:07:47;;;;;;;26.83;22.47;;;7.30;39.50;;;;;;5119378;27;20812;-45
2022/03/13 00:10:18;;;;;;;25.80;21.47;;;7.20;39.50;;;;;;5136499;27;20524;-45
2022/03/13 00:12:46;;;;;;;25.90;21.57;;;7.20;40.00;;;;;;5138424;27;20228;-45
2022/03/13 00:15:14;;;;;;;23.43;20.90;;;7.20;39.60;;;;;;5138172;27;20452;-45
2022/03/13 00:17:40;;;;;;;24.27;21.67;;;7.10;39.60;;;;;;5137237;27;20988;-44
2022/03/13 00:20:08;;;;;;;24.20;21.60;;;7.10;39.70;;;;;;5139271;27;20659;-45
2022/03/13 00:22:36;;;;;;;25.87;21.10;;;7.10;39.70;;;;;;5137103;27;20477;-44
2022/03/13 00:25:08;;;;;;;24.80;22.00;;;7.00;39.70;;;;;;5120718;27;20707;-44
2022/03/13 00:27:34;;;;;;;23.43;21.00;;;6.90;39.80;;;;;;5136517;27;20591;-44
2022/03/13 00:30:01;;;;;;;31.60;23.53;;;6.90;39.90;;;;;;5138864;27;20507;-44
2022/03/13 00:32:28;;;;;;;26.97;23.07;;;6.80;40.00;;;;;;5135491;27;20436;-45
2022/03/13 00:34:54;;;;;;;24.97;20.90;;;6.80;40.20;;;;;;5118261;27;20409;-44
2022/03/13 00:37:20;;;;;;;25.03;21.93;;;6.80;40.30;;;;;;5135881;27;20194;-43
2022/03/13 00:39:49;;;;;;;26.13;20.77;;;6.70;40.30;;;;;;5136609;27;20196;-44
2022/03/13 00:42:15;;;;;;;23.40;21.00;;;6.70;40.40;;;;;;5134184;27;20211;-44
2022/03/13 00:44:41;;;;;;;25.70;22.80;;;6.60;40.50;;;;;;5137443;27;20413;-43
2022/03/13 00:47:07;;;;;;;24.40;21.63;;;6.70;40.60;;;;;;5117559;27;20436;-43
2022/03/13 00:49:33;;;;;;;26.30;22.60;;;6.70;40.60;;;;;;5138878;27;20406;-43
2022/03/13 00:52:00;;;;;;;25.50;22.17;;;6.60;40.60;;;;;;5137620;27;20469;-43
2022/03/13 00:54:27;;;;;;;30.03;22.70;;;6.60;40.60;;;;;;5138927;27;20315;-44
2022/03/13 00:56:54;;;;;;;24.80;20.17;;;6.60;40.50;;;;;;5137411;27;20685;-43
2022/03/13 00:59:20;;;;;;;27.77;22.57;;;6.60;40.50;;;;;;5138755;27;20417;-44
2022/03/13 01:01:46;;;;;;;26.57;22.90;;;6.50;40.50;;;;;;5138500;27;20467;-43
2022/03/13 01:04:13;;;;;;;26.77;23.10;;;6.50;40.60;;;;;;5121404;27;20532;-44
2022/03/13 01:06:40;;;;;;;25.30;21.70;;;6.40;40.70;;;;;;5118938;27;20597;-44
2022/03/13 01:09:06;;;;;;;26.13;22.30;;;6.40;40.80;;;;;;5136786;27;20421;-44
2022/03/13 01:11:31;;;;;;;23.17;20.67;;;6.30;40.80;;;;;;5137718;27;20440;-44
2022/03/13 01:13:57;;;;;;;24.80;20.23;;;6.30;40.90;;;;;;5139954;27;20190;-44
2022/03/13 01:16:25;;;;;;;25.10;20.40;;;6.30;40.90;;;;;;5137062;27;20183;-44
2022/03/13 01:18:55;;;;;;;22.93;20.13;;;6.20;40.80;;;;;;5138757;27;20187;-43
2022/03/13 01:21:21;;;;;;;27.30;22.43;;;6.20;40.90;;;;;;5137826;27;20523;-44
2022/03/13 01:24:02;;;;;;;29.20;21.43;;;6.10;40.90;;;;;;5139577;27;20660;-44
2022/03/13 01:26:34;;;;;;;22.33;19.97;;;6.10;41.00;;;;;;5138670;27;20500;-44
2022/03/13 01:29:00;;;;;;;24.17;20.10;;;6.20;41.10;;;;;;5141070;28;20461;-44
2022/03/13 01:31:28;;;;;;;29.00;21.67;;;6.10;41.00;;;;;;5138326;28;20425;-44
2022/03/13 01:33:55;;;;;;;26.70;22.77;;;6.10;41.10;;;;;;5140189;28;20486;-45
2022/03/13 01:36:21;;;;;;;23.13;20.63;;;6.00;41.10;;;;;;5142628;27;20433;-45
2022/03/13 01:38:47;;;;;;;25.57;20.77;;;6.00;41.20;;;;;;5140332;28;20450;-44
2022/03/13 01:41:12;;;;;;;25.20;20.73;;;5.90;41.20;;;;;;5137990;28;20912;-45
2022/03/13 01:43:38;;;;;;;24.40;20.50;;;5.80;41.20;;;;;;5138864;28;20476;-45
2022/03/13 01:46:04;;;;;;;24.23;21.73;;;5.80;41.40;;;;;;5136259;28;20202;-45
2022/03/13 01:48:39;;;;;;;24.53;21.20;;;5.80;41.40;;;;;;5118989;28;20179;-45
2022/03/13 01:51:05;;;;;;;24.57;21.93;;;5.80;41.50;;;;;;5137907;28;20420;-45
2022/03/13 01:53:32;;;;;;;22.67;19.80;;;5.70;41.50;;;;;;5139410;28;20505;-45
2022/03/13 01:55:58;;;;;;;25.03;21.57;;;5.80;41.60;;;;;;5139468;28;20421;-45
2022/03/13 01:58:25;;;;;;;23.27;20.77;;;5.80;41.50;;;;;;5140324;27;20417;-45
2022/03/13 02:00:50;;;;;;;26.13;22.00;;;5.80;41.60;;;;;;5142311;27;20424;-45
2022/03/13 02:03:17;;;;;;;23.87;21.20;;;5.80;41.60;;;;;;5143620;27;20424;-44
2022/03/13 02:05:43;;;;;;;25.00;20.83;;;5.80;42.10;;;;;;5143071;27;20187;-46
2022/03/13 02:08:13;;;;;;;24.00;21.50;;;5.70;41.60;;;;;;5143508;27;20814;-45
2022/03/13 02:10:39;;;;;;;24.80;21.40;;;5.60;41.70;;;;;;5142706;27;20413;-44
2022/03/13 02:13:05;;;;;;;24.10;20.27;;;5.60;41.80;;;;;;5122538;27;20455;-45
2022/03/13 02:15:32;;;;;;;27.30;20.77;;;5.60;41.70;;;;;;5141711;27;20179;-45
2022/03/13 02:18:00;;;;;;;22.40;19.07;;;5.50;41.70;;;;;;5140315;27;20425;-45
2022/03/13 02:21:06;;;;;;;23.53;18.97;;;5.50;41.70;;;;;;5142139;27;20413;-45
2022/03/13 02:23:32;;;;;;;22.63;18.60;;;5.50;41.70;;;;;;5141392;27;20846;-45
2022/03/13 02:26:02;;;;;;;21.30;19.03;;;5.40;41.70;;;;;;5139558;27;20423;-44
2022/03/13 02:28:31;;;;;;;23.40;20.23;;;5.40;41.70;;;;;;5140884;27;20586;-44
2022/03/13 02:31:05;;;;;;;23.20;19.40;;;5.40;41.60;;;;;;5140668;27;20538;-44
2022/03/13 02:33:31;;;;;;;24.90;19.23;;;5.40;41.40;;;;;;5121734;27;20980;-44
2022/03/13 02:35:59;;;;;;;21.47;18.37;;;5.40;41.40;;;;;;5138252;27;20433;-45
2022/03/13 02:38:26;;;;;;;27.70;21.00;;;5.40;41.30;;;;;;5137681;27;20424;-44
2022/03/13 02:40:52;;;;;;;23.10;20.40;;;5.40;41.30;;;;;;5138648;27;20819;-44
2022/03/13 02:43:18;;;;;;;22.10;18.57;;;5.40;41.20;;;;;;5137713;27;20409;-45
2022/03/13 02:45:44;;;;;;;26.60;20.20;;;5.40;41.10;;;;;;5116070;27;20436;-45
2022/03/13 02:48:11;;;;;;;26.40;20.47;;;5.30;41.10;;;;;;5135847;27;20202;-44
2022/03/13 02:50:38;;;;;;;22.47;19.20;;;5.40;41.10;;;;;;5117168;27;20425;-45
2022/03/13 02:53:04;;;;;;;24.40;18.90;;;5.40;41.00;;;;;;5137693;27;20481;-45
2022/03/13 02:55:30;;;;;;;23.57;18.23;;;5.40;40.90;;;;;;5136711;27;20469;-44
2022/03/13 02:57:56;;;;;;;24.47;19.80;;;5.30;40.80;;;;;;5121109;27;20401;-45
2022/03/13 03:00:43;;;;;;;24.70;18.90;;;5.30;40.70;;;;;;5106003;27;20531;-45
2022/03/13 03:03:11;;;;;;;22.27;17.83;;;5.30;40.50;;;;;;5142606;27;20451;-45
2022/03/13 03:05:37;;;;;;;22.87;19.77;;;5.30;40.40;;;;;;5106098;27;20521;-45
2022/03/13 03:08:03;;;;;;;28.33;19.87;;;5.40;40.50;;;;;;5142087;27;20408;-45
2022/03/13 03:10:29;;;;;;;23.30;18.50;;;5.40;40.60;;;;;;5139723;27;20431;-45
2022/03/13 03:12:55;;;;;;;23.83;19.20;;;5.30;40.60;;;;;;5140880;27;20464;-44
2022/03/13 03:15:22;;;;;;;24.20;19.10;;;5.30;40.70;;;;;;5140395;27;20876;-43
2022/03/13 03:17:48;;;;;;;25.30;19.57;;;5.40;40.80;;;;;;5139494;27;20229;-43
2022/03/13 03:20:14;;;;;;;25.77;19.17;;;5.30;40.90;;;;;;5140839;27;20397;-41
2022/03/13 03:22:40;;;;;;;23.40;18.57;;;5.30;40.90;;;;;;5140462;27;20436;-44
2022/03/13 03:25:07;;;;;;;22.33;18.90;;;5.40;41.00;;;;;;5144253;27;20316;-44
2022/03/13 03:27:33;;;;;;;23.60;19.87;;;5.30;41.00;;;;;;5141341;27;20429;-44
2022/03/13 03:29:59;;;;;;;23.57;18.93;;;5.30;41.10;;;;;;5142835;27;20701;-44
2022/03/13 03:32:25;;;;;;;22.87;19.50;;;5.30;41.10;;;;;;5139667;27;20283;-44
2022/03/13 03:34:51;;;;;;;23.87;20.03;;;5.30;41.20;;;;;;5139641;27;20413;-44
2022/03/13 03:37:18;;;;;;;23.83;19.30;;;5.30;41.20;;;;;;5122003;27;20258;-46
2022/03/13 03:39:44;;;;;;;26.00;20.47;;;5.30;41.30;;;;;;5140946;27;20159;-44
2022/03/13 03:42:09;;;;;;;22.27;19.80;;;5.30;41.30;;;;;;5139374;27;20911;-44
2022/03/13 03:44:35;;;;;;;26.03;21.10;;;5.30;41.40;;;;;;5122901;27;20206;-44
2022/03/13 03:47:00;;;;;;;25.40;19.50;;;5.30;41.50;;;;;;5140045;27;20210;-44
2022/03/13 03:49:26;;;;;;;23.97;18.43;;;5.30;41.60;;;;;;5141494;27;20180;-43
2022/03/13 03:51:54;;;;;;;20.77;18.50;;;5.30;41.70;;;;;;5140472;27;20207;-43
2022/03/13 03:54:19;;;;;;;20.67;18.47;;;5.30;41.70;;;;;;5141968;27;20297;-44
2022/03/13 03:56:45;;;;;;;23.00;18.87;;;5.20;41.80;;;;;;5139987;27;20453;-44
2022/03/13 03:59:11;;;;;;;24.63;20.20;;;5.20;41.90;;;;;;5139348;27;20470;-44
2022/03/13 04:01:38;;;;;;;23.37;20.23;;;5.20;42.00;;;;;;5137267;27;20187;-44
2022/03/13 04:04:05;;;;;;;26.77;20.67;;;5.20;42.20;;;;;;5138630;27;20462;-44
2022/03/13 04:06:33;;;;;;;24.43;19.30;;;5.20;42.30;;;;;;5137009;27;20429;-44
2022/03/13 04:08:59;;;;;;;22.80;19.63;;;5.20;42.40;;;;;;5138848;27;20521;-44
2022/03/13 04:11:25;;;;;;;22.60;18.53;;;5.20;42.50;;;;;;5136642;27;20464;-44
2022/03/13 04:13:51;;;;;;;25.30;19.60;;;5.20;42.60;;;;;;5138841;27;20818;-44
2022/03/13 04:16:17;;;;;;;27.17;21.00;;;5.20;42.80;;;;;;5139153;27;20179;-44
2022/03/13 04:18:42;;;;;;;22.87;19.80;;;5.20;42.90;;;;;;5137901;27;20417;-43
2022/03/13 04:21:08;;;;;;;23.20;19.87;;;5.20;43.00;;;;;;5139823;27;20413;-44
2022/03/13 04:23:35;;;;;;;23.43;20.10;;;5.20;43.20;;;;;;5119279;27;20183;-43
2022/03/13 04:26:01;;;;;;;23.20;19.67;;;5.20;43.30;;;;;;5120634;27;20176;-44
2022/03/13 04:28:27;;;;;;;28.27;20.17;;;5.20;43.30;;;;;;5137701;27;20440;-44
2022/03/13 04:30:53;;;;;;;25.27;20.90;;;5.20;43.30;;;;;;5139313;27;20413;-44
2022/03/13 04:33:19;;;;;;;22.63;19.87;;;5.20;43.40;;;;;;5138402;27;20244;-43
2022/03/13 04:35:45;;;;;;;21.47;19.17;;;5.20;43.40;;;;;;5139217;27;20408;-44
2022/03/13 04:38:11;;;;;;;22.37;19.70;;;5.20;43.50;;;;;;5139331;27;20450;-44
2022/03/13 04:40:36;;;;;;;25.17;21.27;;;5.10;43.50;;;;;;5138846;27;20217;-44
2022/03/13 04:43:03;;;;;;;21.93;19.50;;;5.10;43.50;;;;;;5139107;27;20232;-44
2022/03/13 04:45:29;;;;;;;21.63;19.17;;;5.00;43.50;;;;;;5137029;27;20180;-45
2022/03/13 04:47:55;;;;;;;25.87;20.50;;;5.00;43.50;;;;;;5138102;27;20424;-44
2022/03/13 04:50:21;;;;;;;22.90;19.57;;;5.00;43.60;;;;;;5136248;27;20727;-44
2022/03/13 04:52:47;;;;;;;19.63;17.20;;;5.00;43.60;;;;;;5136493;27;20464;-44
2022/03/13 04:55:13;;;;;;;23.53;20.00;;;5.00;43.70;;;;;;5136367;27;20224;-44
2022/03/13 04:57:38;;;;;;;22.17;19.00;;;4.90;43.60;;;;;;5138024;27;20469;-44
2022/03/13 05:00:06;;;;;;;24.87;21.23;;;4.90;43.70;;;;;;5136056;27;20425;-44
2022/03/13 05:02:31;;;;;;;22.67;18.80;;;4.90;43.70;;;;;;5136535;27;20180;-46
2022/03/13 05:04:59;;;;;;;23.10;19.13;;;4.90;43.70;;;;;;5136411;27;20416;-46
2022/03/13 05:07:25;;;;;;;24.07;18.73;;;4.90;43.80;;;;;;5136683;27;20186;-47
2022/03/13 05:09:51;;;;;;;24.33;19.47;;;4.90;44.00;;;;;;5137755;27;20408;-46
2022/03/13 05:12:17;;;;;;;20.80;18.27;;;4.90;44.00;;;;;;5139553;27;20456;-47
2022/03/13 05:14:43;;;;;;;23.27;20.53;;;4.90;44.00;;;;;;5139419;27;20262;-47
2022/03/13 05:17:09;;;;;;;24.67;20.43;;;4.90;44.00;;;;;;5140564;27;20436;-46
2022/03/13 05:19:34;;;;;;;27.37;20.47;;;4.90;44.10;;;;;;5139441;27;20743;-47
2022/03/13 05:22:00;;;;;;;23.83;19.10;;;4.80;44.00;;;;;;5139020;27;20252;-47
2022/03/13 05:24:25;;;;;;;23.70;19.97;;;4.80;44.10;;;;;;5139649;27;20186;-47
2022/03/13 05:26:51;;;;;;;23.33;20.30;;;4.80;44.10;;;;;;5138614;27;20218;-47
2022/03/13 05:29:16;;;;;;;24.40;19.77;;;4.70;44.20;;;;;;5140497;27;20167;-47
2022/03/13 05:31:43;;;;;;;24.23;19.10;;;4.70;44.20;;;;;;5138120;28;20301;-47
2022/03/13 05:34:09;;;;;;;23.80;18.50;;;4.70;44.20;;;;;;5144516;27;20163;-46
2022/03/13 05:36:35;;;;;;;21.33;18.67;;;4.70;44.30;;;;;;5127460;27;20486;-46
2022/03/13 05:39:01;;;;;;;23.50;19.57;;;4.70;44.40;;;;;;5146585;27;20739;-47
2022/03/13 05:41:27;;;;;;;22.17;19.37;;;4.70;44.40;;;;;;5145337;27;20183;-46
2022/03/13 05:43:53;;;;;;;23.90;19.13;;;4.60;44.50;;;;;;5128284;27;20182;-46
2022/03/13 05:46:19;;;;;;;25.13;19.60;;;4.60;45.10;;;;;;5145908;27;20519;-46
2022/03/13 05:48:44;;;;;;;24.77;19.03;;;4.60;44.90;;;;;;5146701;27;20274;-46
2022/03/13 05:51:10;;;;;;;22.73;19.30;;;4.60;45.20;;;;;;5145436;27;20207;-46
2022/03/13 05:53:36;;;;;;;22.17;19.40;;;4.60;45.40;;;;;;5146184;27;20246;-46
2022/03/13 05:56:02;;;;;;;22.97;19.47;;;4.50;45.50;;;;;;5146579;27;20263;-46
2022/03/13 05:58:28;;;;;;;24.40;19.67;;;4.60;45.60;;;;;;5145157;27;20550;-46
2022/03/13 06:01:08;;;;;;;25.50;21.60;;;4.60;45.70;;;;;;5147885;27;20415;-46
2022/03/13 06:03:34;;;;;;;24.20;19.90;;;4.60;46.30;;;;;;5146747;27;20420;-47
2022/03/13 06:06:04;;;;;;;27.37;21.93;;;4.60;46.00;;;;;;5145045;27;20424;-46
2022/03/13 06:08:31;;;;;;;21.80;19.50;;;4.70;46.10;;;;;;5146524;27;20417;-47
2022/03/13 06:11:01;;;;;;;22.00;19.60;;;4.70;46.10;;;;;;5145325;27;20417;-47
2022/03/13 06:13:27;;;;;;;21.27;18.97;;;4.80;46.20;;;;;;5140918;27;20964;-47
2022/03/13 06:15:53;;;;;;;23.80;19.70;;;4.80;46.10;;;;;;5131236;27;20425;-47
2022/03/13 06:18:19;;;;;;;24.60;20.40;;;4.80;46.00;;;;;;5131177;27;20804;-47
2022/03/13 06:20:45;;;;;;;27.03;20.67;;;4.90;45.90;;;;;;5127140;27;20742;-47
2022/03/13 06:23:13;;;;;;;23.30;20.43;;;5.00;45.70;;;;;;5131276;27;20452;-47
2022/03/13 06:25:43;;;;;;;24.03;20.40;;;5.20;45.70;;;;;;5126649;27;20552;-47
2022/03/13 06:28:13;;;;;;;27.63;20.67;;;5.30;45.60;;;;;;5113454;28;20440;-47
2022/03/13 06:30:47;;;;;;;21.73;19.37;;;5.40;45.50;;;;;;5124831;27;20630;-47
2022/03/13 06:33:13;;;;;;;23.57;19.53;;;5.50;45.30;;;;;;5136244;27;20790;-47
2022/03/13 06:35:39;;;;;;;23.07;19.50;;;5.50;45.10;;;;;;5107420;27;20461;-47
2022/03/13 06:38:05;;;;;;;22.70;19.30;;;5.70;45.00;;;;;;5132677;27;20176;-47
2022/03/13 06:40:31;;;;;;;23.90;20.37;;;5.80;44.80;;;;;;5124522;28;20823;-47
2022/03/13 06:42:58;;;;;;;23.10;19.80;;;5.90;44.60;;;;;;5106772;27;20442;-47
2022/03/13 06:45:24;;;;;;;24.57;20.90;;;6.00;44.50;;;;;;5129581;27;20438;-47
2022/03/13 06:47:50;;;;;;;24.57;19.57;;;6.20;44.40;;;;;;5131196;27;20432;-47
2022/03/13 06:50:22;;;;;;;24.63;20.80;;;6.30;44.30;;;;;;5143040;27;20488;-47
2022/03/13 06:52:49;;;;;;;22.73;19.47;;;6.50;44.30;;;;;;5134605;27;20558;-47
2022/03/13 06:55:15;;;;;;;22.50;19.77;;;6.70;44.20;;;;;;5141902;27;20500;-47
2022/03/13 06:57:42;;;;;;;28.20;21.40;;;6.90;44.10;;;;;;5124527;27;20527;-47
2022/03/13 07:00:14;;;;;;;24.03;20.40;;;7.10;44.00;;;;;;5134642;27;20421;-47
2022/03/13 07:02:39;;;;;;;25.80;21.90;;;7.30;43.90;;;;;;5129685;27;20444;-47
2022/03/13 07:05:07;;;;;;;23.10;20.70;;;7.60;43.80;;;;;;5135953;27;20437;-47
2022/03/13 07:07:32;;;;;;;23.07;20.60;;;7.80;44.00;;;;;;5125578;27;20203;-47
2022/03/13 07:09:58;;;;;;;30.97;22.83;;;8.00;43.40;;;;;;5120895;28;20687;-47
2022/03/13 07:12:26;;;;;;;22.83;20.27;;;8.30;43.10;;;;;;5119103;28;20211;-48
2022/03/13 07:14:56;;;;;;;23.60;21.10;;;8.60;43.40;;;;;;5119670;28;20483;-47
2022/03/13 07:17:24;;;;;;;24.20;20.53;;;8.90;42.50;;;;;;5119949;27;20548;-47
2022/03/13 07:19:51;;;;;;;23.93;20.00;;;9.20;42.10;;;;;;5125497;27;20546;-47
2022/03/13 07:22:18;;;;;;;23.17;20.70;;;9.50;41.60;;;;;;5134320;27;20531;-48
2022/03/13 07:24:47;;;;;;;23.93;21.43;;;9.70;41.00;;;;;;5133371;27;20410;-47
2022/03/13 07:27:14;;;;;;;24.70;21.23;;;10.10;39.70;;;;;;5119848;28;20426;-47
2022/03/13 07:29:39;;;;;;;22.90;20.50;;;10.30;39.20;;;;;;5120933;28;20439;-47
2022/03/13 07:32:05;;;;;;;26.53;22.07;;;10.70;38.70;;;;;;5100588;27;20509;-47
2022/03/13 07:34:31;;;;;;;25.40;21.30;;;10.90;38.10;;;;;;5129499;27;20491;-47
2022/03/13 07:36:57;;;;;;;24.07;21.20;;;11.20;37.60;;;;;;5139407;27;20168;-47
2022/03/13 07:39:22;;;;;;;23.40;20.90;;;11.40;37.10;;;;;;5123866;27;20575;-47
2022/03/13 07:41:49;;;;;;;24.50;21.30;;;11.70;36.80;;;;;;5101621;28;20237;-47
2022/03/13 07:44:14;;;;;;;24.07;21.37;;;12.00;36.60;;;;;;5119690;28;20181;-48
2022/03/13 07:46:40;;;;;;;21.90;19.67;;;12.30;36.30;;;;;;5119541;28;20430;-48
2022/03/13 07:49:06;;;;;;;23.60;21.13;;;12.60;36.10;;;;;;5102212;28;20178;-48
2022/03/13 07:51:35;;;;;;;23.50;20.07;;;12.90;36.30;;;;;;5118044;27;20501;-48
2022/03/13 07:54:02;;;;;;;23.50;20.40;;;13.20;35.50;;;;;;5125796;27;20231;-48
2022/03/13 07:56:29;;;;;;;21.00;18.90;;;13.50;35.20;;;;;;5129559;27;20432;-47
2022/03/13 07:58:55;;;;;;;22.90;20.40;;;13.90;34.90;;;;;;5124698;27;20531;-47
2022/03/13 08:01:21;;;;;;;22.10;19.80;;;14.20;34.50;;;;;;5140743;27;20412;-47
2022/03/13 08:03:47;;;;;;;22.47;20.17;;;14.50;34.10;;;;;;5139022;27;20698;-47
2022/03/13 08:06:13;;;;;;;22.50;19.67;;;14.90;33.90;;;;;;5140334;27;20177;-47
2022/03/13 08:08:39;;;;;;;20.93;18.73;;;15.20;33.60;;;;;;5138252;27;20433;-48
2022/03/13 08:11:05;;;;;;;21.73;19.43;;;15.60;33.40;;;;;;5139964;27;20401;-48
2022/03/13 08:13:30;;;;;;;24.47;21.83;;;15.80;32.90;;;;;;5138220;27;20206;-47
2022/03/13 08:15:56;;;;;;;26.13;22.73;;;16.10;32.20;;;;;;5140437;27;20179;-48
2022/03/13 08:18:22;;;;;;;24.27;21.87;;;16.40;32.20;;;;;;5130438;27;20259;-47
2022/03/13 08:20:47;;;;;;;23.30;20.90;;;16.60;31.40;;;;;;5140168;27;20174;-48
2022/03/13 08:23:14;;;;;;;23.37;21.13;;;16.90;31.20;;;;;;5138450;27;20180;-48
2022/03/13 08:25:40;;;;;;;25.30;22.73;;;17.20;31.10;;;;;;5140007;27;20183;-48
2022/03/13 08:28:06;;;;;;;24.17;21.67;;;17.50;30.60;;;;;;5138894;27;20505;-48
2022/03/13 08:30:36;;;;;;;23.47;21.17;;;17.80;30.40;;;;;;5139599;27;20259;-48
2022/03/13 08:33:02;;;;;;;23.00;20.77;;;18.10;30.10;;;;;;5119303;27;20474;-48
2022/03/13 08:35:29;;;;;;;24.10;20.47;;;18.40;30.00;;;;;;5134435;27;20436;-48
2022/03/13 08:37:55;;;;;;;23.60;21.20;;;18.70;29.70;;;;;;5130375;27;20452;-48
2022/03/13 08:40:25;;;;;;;23.90;21.40;;;19.00;29.50;;;;;;5137191;27;20469;-48
2022/03/13 08:42:51;;;;;;;22.07;20.00;;;19.40;29.30;;;;;;5118918;27;20539;-47
2022/03/13 08:45:17;;;;;;;24.07;21.67;;;19.80;29.30;;;;;;5138048;27;20410;-48
2022/03/13 08:47:42;;;;;;;23.50;21.30;;;20.20;29.10;;;;;;5138251;27;20402;-47
2022/03/13 08:50:10;;;;;;;23.23;20.80;;;20.60;29.00;;;;;;5140054;27;20177;-48
2022/03/13 08:52:36;;;;;;;23.10;20.70;;;20.90;28.60;;;;;;5139765;27;20227;-46
2022/03/13 08:55:03;;;;;;;21.17;19.27;;;21.40;28.40;;;;;;5116987;28;20473;-48
2022/03/13 08:57:30;;;;;;;22.43;20.27;;;21.70;28.20;;;;;;5115485;28;20458;-47
2022/03/13 08:59:56;;;;;;;22.30;20.20;;;22.10;28.00;;;;;;5114524;28;20475;-47
2022/03/13 09:02:22;;;;;;;23.03;21.00;;;22.40;27.70;;;;;;5116086;28;20414;-48
2022/03/13 09:04:49;;;;;;;24.73;22.53;;;22.70;27.50;;;;;;5117691;28;20942;-47
2022/03/13 09:07:15;;;;;;;21.50;19.50;;;23.10;27.20;;;;;;5117171;28;20170;-47
2022/03/13 09:09:41;;;;;;;24.30;22.00;;;23.40;26.90;;;;;;5116963;28;20735;-48
2022/03/13 09:12:07;;;;;;;23.83;21.53;;;23.70;26.90;;;;;;5118085;28;20745;-47
2022/03/13 09:14:39;;;;;;;22.53;20.47;;;24.10;26.70;;;;;;5117180;28;20857;-48
2022/03/13 09:17:05;;;;;;;23.37;21.30;;;24.40;26.50;;;;;;5119120;28;20420;-48
2022/03/13 09:19:31;;;;;;;22.33;20.30;;;24.80;26.30;;;;;;5115735;28;20749;-47
2022/03/13 09:21:57;;;;;;;23.30;21.03;;;25.20;26.00;;;;;;5118534;28;20420;-48
2022/03/13 09:24:22;;;;;;;22.40;20.47;;;25.60;25.70;;;;;;5117134;28;20191;-48
2022/03/13 09:26:48;;;;;;;22.97;20.97;;;25.90;25.30;;;;;;5115422;28;20646;-47
2022/03/13 09:29:14;;;;;;;21.90;20.10;;;26.20;25.20;;;;;;5108384;28;20276;-47
2022/03/13 09:31:40;;;;;;;23.83;21.50;;;26.50;25.00;;;;;;5116357;28;20241;-47
2022/03/13 09:34:06;;;;;;;21.73;19.83;;;26.90;24.70;;;;;;5114966;28;20422;-47
2022/03/13 09:36:36;;;;;;;22.00;20.00;;;27.20;24.50;;;;;;5106525;28;20168;-47
2022/03/13 09:39:04;;;;;;;21.60;19.57;;;27.40;24.50;;;;;;5096892;28;20173;-47
2022/03/13 09:41:31;;;;;;;24.33;22.13;;;27.90;24.30;;;;;;5100042;28;20707;-48
2022/03/13 09:43:57;;;;;;;22.10;20.27;;;28.30;24.20;;;;;;5115948;28;20504;-48
2022/03/13 09:46:23;;;;;;;23.10;21.00;;;28.80;23.90;;;;;;5115171;28;20501;-47
2022/03/13 09:48:52;;;;;;;23.00;20.90;;;29.10;23.80;;;;;;5116932;28;20483;-45
2022/03/13 09:51:20;;;;;;;22.50;20.50;;;29.40;23.50;;;;;;5115453;28;20464;-46
2022/03/13 09:53:46;;;;;;;21.67;19.87;;;29.70;23.40;;;;;;5122009;28;20460;-47
2022/03/13 09:56:13;;;;;;;22.23;20.43;;;30.10;23.10;;;;;;5126179;28;20537;-46
2022/03/13 09:58:40;;;;;;;22.60;20.70;;;30.30;23.00;;;;;;5123325;28;20255;-46
2022/03/13 10:01:08;;;;;;;24.50;22.40;;;30.50;23.00;;;;;;5123654;28;20487;-46
2022/03/13 10:03:34;;;;;;;22.60;20.70;;;31.00;22.80;;;;;;5125655;28;20845;-46
2022/03/13 10:06:01;;;;;;;25.00;22.90;;;31.50;22.40;;;;;;5124725;28;20433;-46
2022/03/13 10:08:31;;;;;;;24.30;22.07;;;31.90;22.20;;;;;;5121453;28;20486;-47
2022/03/13 10:11:02;;;;;;;23.50;21.50;;;32.20;22.10;;;;;;5104280;28;20523;-47
2022/03/13 10:13:46;;;;;;;24.90;22.70;;;32.10;22.20;;;;;;5123796;28;20418;-46
2022/03/13 10:16:20;;;;;;;22.33;20.60;;;32.40;22.00;;;;;;5115909;28;20434;-46
2022/03/13 10:18:46;;;;;;;24.53;22.33;;;32.80;21.90;;;;;;5121713;28;20416;-46
2022/03/13 10:21:16;;;;;;;23.70;21.70;;;33.20;21.80;;;;;;5135262;27;20598;-46
2022/03/13 10:23:43;;;;;;;25.43;23.33;;;33.40;21.60;;;;;;5141250;27;20722;-46
2022/03/13 10:26:08;;;;;;;24.33;22.10;;;33.80;21.60;;;;;;5124136;27;20398;-46
2022/03/13 10:28:36;;;;;;;25.47;23.37;;;34.00;21.40;;;;;;5119145;28;20482;-46
2022/03/13 10:31:02;;;;;;;23.60;21.60;;;34.30;21.20;;;;;;5120408;28;20170;-46
2022/03/13 10:33:43;;;;;;;23.93;21.93;;;34.40;21.60;;;;;;5118801;28;20498;-47
2022/03/13 10:36:14;;;;;;;24.27;22.03;;;34.70;21.40;;;;;;5102104;28;20530;-46
2022/03/13 10:38:41;;;;;;;24.57;22.57;;;35.10;21.10;;;;;;5117906;28;20766;-47
2022/03/13 10:41:12;;;;;;;24.83;22.73;;;35.10;21.10;;;;;;5119727;28;20521;-46
2022/03/13 10:43:49;;;;;;;24.70;22.70;;;35.50;21.00;;;;;;5101770;28;20904;-46
2022/03/13 10:46:32;;;;;;;24.73;22.70;;;35.70;20.80;;;;;;5119674;28;20431;-46
2022/03/13 10:49:00;;;;;;;24.07;22.10;;;35.90;20.70;;;;;;5118677;28;20471;-46
2022/03/13 10:51:45;;;;;;;22.33;20.53;;;36.20;20.60;;;;;;5100745;28;20835;-47
2022/03/13 10:54:28;;;;;;;22.53;20.63;;;36.20;20.40;;;;;;5116621;28;20977;-46
2022/03/13 10:57:13;;;;;;;16.80;15.40;;;36.40;20.50;;;;;;5117137;28;20402;-48
2022/03/13 10:59:43;;;;;;;8.63;8.03;;;36.80;22.30;;;;;;5098689;28;20426;-48
2022/03/13 11:02:10;;;;;;;10.90;9.80;;;36.80;23.20;;;;;;5117481;28;20961;-43
2022/03/13 11:04:36;;;;;;;11.73;10.80;;;36.40;23.60;;;;;;5116227;28;20457;-44
2022/03/13 11:07:02;;;;;;;14.30;13.17;;;36.30;23.40;;;;;;5117450;28;20433;-44
2022/03/13 11:09:27;;;;;;;14.07;12.87;;;36.50;23.40;;;;;;5120167;27;20701;-43
2022/03/13 11:11:54;;;;;;;17.50;16.10;;;36.30;23.10;;;;;;5118117;27;20279;-42
2022/03/13 11:14:20;;;;;;;16.10;14.90;;;36.00;22.50;;;;;;5118275;27;20268;-41
2022/03/13 11:16:47;;;;;;;16.43;15.00;;;35.80;23.00;;;;;;5100543;28;20468;-42
2022/03/13 11:19:13;;;;;;;19.50;17.90;;;35.70;23.00;;;;;;5113973;28;20430;-41
2022/03/13 11:21:39;;;;;;;16.33;15.03;;;35.60;22.50;;;;;;5099608;28;20565;-42
2022/03/13 11:24:05;;;;;;;16.00;14.80;;;35.70;22.90;;;;;;5116266;28;20429;-40
2022/03/13 11:26:32;;;;;;;17.23;15.63;;;35.60;23.20;;;;;;5120926;27;20583;-41
2022/03/13 11:28:58;;;;;;;18.00;16.40;;;35.60;23.20;;;;;;5101440;27;20425;-45
2022/03/13 11:31:29;;;;;;;17.03;15.63;;;35.60;22.90;;;;;;5130925;27;20450;-41
2022/03/13 11:34:20;;;;;;;20.20;18.60;;;35.50;22.80;;;;;;5136017;27;20421;-41
2022/03/13 11:36:50;;;;;;;18.30;16.93;;;35.50;22.30;;;;;;5137396;27;20417;-44
2022/03/13 11:39:31;;;;;;;20.23;18.53;;;35.20;22.70;;;;;;5138577;27;20842;-40
2022/03/13 11:41:59;;;;;;;18.20;16.70;;;35.30;22.20;;;;;;5127965;27;20432;-44
2022/03/13 11:44:31;;;;;;;17.63;16.23;;;35.30;22.70;;;;;;5120400;27;20760;-45
2022/03/13 11:47:00;;;;;;;19.23;17.83;;;35.40;22.70;;;;;;5118252;28;20466;-43
2022/03/13 11:49:26;;;;;;;19.40;17.80;;;35.50;22.20;;;;;;5116080;27;20447;-43
2022/03/13 11:52:12;;;;;;;19.90;18.30;;;35.70;22.30;;;;;;5124337;27;20873;-42
2022/03/13 11:54:55;;;;;;;17.53;16.03;;;35.70;22.00;;;;;;5111189;27;20242;-42
2022/03/13 11:57:24;;;;;;;17.47;16.03;;;36.10;22.50;;;;;;5116071;27;20784;-40
2022/03/13 12:00:13;;;;;;;18.27;16.87;;;36.20;22.60;;;;;;5096067;28;20428;-40
2022/03/13 12:02:41;;;;;;;17.27;15.90;;;36.20;22.10;;;;;;5101851;28;20481;-40
2022/03/13 12:05:25;;;;;;;19.30;17.80;;;36.30;22.10;;;;;;5116213;28;20422;-41
2022/03/13 12:08:05;;;;;;;21.13;19.50;;;36.30;22.20;;;;;;5098854;28;20421;-43
2022/03/13 12:10:42;;;;;;;19.53;17.60;;;36.40;21.50;;;;;;5118278;28;20444;-43
2022/03/13 12:13:12;;;;;;;20.10;18.50;;;36.60;21.70;;;;;;5116353;28;20414;-45
2022/03/13 12:15:40;;;;;;;17.20;15.80;;;37.50;21.20;;;;;;5115854;27;20646;-44
2022/03/13 12:18:27;;;;;;;19.20;17.70;;;38.50;21.50;;;;;;5114915;27;20496;-45
2022/03/13 12:20:58;;;;;;;20.20;18.60;;;39.60;20.70;;;;;;5117106;27;20722;-42
2022/03/13 12:23:33;;;;;;;20.20;18.50;;;40.20;20.30;;;;;;5101694;27;20443;-45
2022/03/13 12:26:22;;;;;;;18.20;16.70;;;40.60;20.30;;;;;;5137994;27;20410;-42
2022/03/13 12:28:49;;;;;;;20.80;19.30;;;40.60;20.10;;;;;;5118103;27;20517;-43
2022/03/13 12:31:15;;;;;;;18.43;17.03;;;40.70;20.20;;;;;;5136269;27;20408;-43
2022/03/13 12:33:53;;;;;;;20.20;18.43;;;40.80;20.20;;;;;;5114683;28;20827;-43
2022/03/13 12:36:19;;;;;;;17.13;15.93;;;41.00;19.90;;;;;;5115892;28;20400;-44